createdAt,value
2019-04-21T00:02:03.384Z,62.05
2019-04-21T00:04:43.395Z,62.31
2019-04-21T00:07:22.056Z,62.37
2019-04-21T00:09:55.137Z,62.62
2019-04-21T00:12:21.929Z,62.78
2019-04-21T00:14:48.419Z,62.78
2019-04-21T00:17:09.674Z,63.32
2019-04-21T00:19:38.980Z,64.11
2019-04-21T00:22:19.460Z,64.11
2019-04-21T00:24:51.933Z,63.97
2019-04-21T00:27:24.436Z,63.97
2019-04-21T00:29:59.104Z,64.37
2019-04-21T00:32:24.558Z,64.42
2019-04-21T00:34:41.080Z,64.41
2019-04-21T00:37:18.902Z,64.40
2019-04-21T00:40:03.653Z,64.54
2019-04-21T00:42:33.293Z,64.55
2019-04-21T00:44:55.634Z,64.53
2019-04-21T00:47:31.669Z,64.49
2019-04-21T00:50:02.263Z,64.62
2019-04-21T00:55:20.259Z,64.68
2019-04-21T00:57:49.880Z,64.81
2019-04-21T01:00:14.199Z,64.76
2019-04-21T01:02:45.520Z,64.48
2019-04-21T01:05:15.143Z,64.50
2019-04-21T01:07:41.634Z,64.72
2019-04-21T01:10:06.661Z,64.80
2019-04-21T01:12:43.415Z,64.93
2019-04-21T01:15:22.400Z,65.04
2019-04-21T01:17:40.839Z,65.31
2019-04-21T01:20:06.269Z,66.15
2019-04-21T01:22:20.970Z,65.90
2019-04-21T01:25:04.670Z,66.00
2019-04-21T01:27:33.567Z,66.00
2019-04-21T01:30:14.650Z,66.21
2019-04-21T01:32:43.906Z,66.21
2019-04-21T01:35:12.034Z,66.07
2019-04-21T01:37:44.155Z,66.00
2019-04-21T01:40:21.274Z,66.16
2019-04-21T01:42:41.128Z,66.26
2019-04-21T01:45:09.336Z,65.76
2019-04-21T01:47:44.897Z,65.76
2019-04-21T01:50:01.071Z,66.23
2019-04-21T01:52:53.244Z,66.36
2019-04-21T01:55:24.948Z,66.33
2019-04-21T01:57:52.734Z,66.36
2019-04-21T02:00:19.042Z,66.13
2019-04-21T02:03:04.315Z,66.57
2019-04-21T02:05:32.923Z,66.57
2019-04-21T02:07:54.734Z,66.52
2019-04-21T02:10:35.200Z,66.89
2019-04-21T02:13:01.661Z,67.04
2019-04-21T02:15:31.121Z,66.69
2019-04-21T02:17:59.696Z,67.17
2019-04-21T02:20:21.575Z,67.17
2019-04-21T02:23:15.970Z,67.01
2019-04-21T02:25:34.963Z,67.03
2019-04-21T02:28:03.514Z,67.08
2019-04-21T02:30:47.511Z,67.22
2019-04-21T02:33:08.823Z,67.62
2019-04-21T02:38:30.742Z,67.87
2019-04-21T02:40:47.518Z,67.97
2019-04-21T02:43:18.747Z,68.12
2019-04-21T02:48:19.662Z,67.96
2019-04-21T02:53:20.484Z,68.33
2019-04-21T03:01:07.523Z,68.16
2019-04-21T03:06:08.792Z,68.10
2019-04-21T03:11:17.400Z,68.63
2019-04-21T03:16:17.086Z,68.89
2019-04-21T03:23:52.263Z,69.27
2019-04-21T03:26:24.893Z,69.19
2019-04-21T03:28:43.549Z,69.32
2019-04-21T03:31:36.676Z,70.13
2019-04-21T03:34:18.524Z,70.44
2019-04-21T03:36:41.004Z,70.24
2019-04-21T03:41:30.530Z,70.25
2019-04-21T03:43:44.690Z,70.12
2019-04-21T03:46:15.982Z,70.55
2019-04-21T03:49:04.673Z,70.61
2019-04-21T03:51:27.656Z,70.78
2019-04-21T03:53:48.071Z,70.75
2019-04-21T03:56:27.022Z,71.06
2019-04-21T03:58:54.400Z,71.25
2019-04-21T04:04:08.423Z,70.90
2019-04-21T04:07:04.448Z,70.88
2019-04-21T04:11:45.751Z,70.81
2019-04-21T04:14:31.067Z,70.72
2019-04-21T04:16:59.029Z,70.55
2019-04-21T04:19:33.107Z,70.53
2019-04-21T04:21:51.107Z,70.65
2019-04-21T04:24:22.320Z,70.54
2019-04-21T04:26:45.407Z,70.45
2019-04-21T04:37:02.047Z,70.44
2019-04-21T04:44:45.682Z,70.02
2019-04-21T04:47:04.904Z,70.54
2019-04-21T04:49:38.603Z,70.20
2019-04-21T04:52:10.227Z,69.72
2019-04-21T04:54:40.088Z,69.59
2019-04-21T04:56:58.637Z,69.60
2019-04-21T04:59:32.556Z,69.54
2019-04-21T05:02:00.170Z,69.44
2019-04-21T05:04:24.858Z,69.27
2019-04-21T05:09:25.263Z,68.84
2019-04-21T05:11:56.070Z,68.27
2019-04-21T05:14:26.590Z,68.27
2019-04-21T05:16:56.035Z,67.69
2019-04-21T05:19:21.170Z,68.00
2019-04-21T05:22:12.105Z,67.83
2019-04-21T05:24:21.482Z,67.45
2019-04-21T05:26:43.462Z,66.57
2019-04-21T05:29:09.029Z,66.57
2019-04-21T05:32:07.624Z,66.37
2019-04-21T05:34:27.084Z,66.44
2019-04-21T05:37:10.412Z,66.27
2019-04-21T05:39:32.965Z,66.27
2019-04-21T05:41:59.025Z,66.08
2019-04-21T05:44:57.161Z,65.87
2019-04-21T05:47:20.392Z,65.85
2019-04-21T05:49:49.995Z,65.93
2019-04-21T05:52:21.410Z,65.82
2019-04-21T05:54:57.335Z,65.57
2019-04-21T05:57:22.255Z,65.33
2019-04-21T05:59:54.773Z,64.97
2019-04-21T06:02:23.642Z,65.03
2019-04-21T06:05:05.588Z,64.81
2019-04-21T06:09:57.165Z,64.35
2019-04-21T06:12:31.661Z,64.13
2019-04-21T06:15:01.058Z,64.06
2019-04-21T06:17:32.901Z,63.70
2019-04-21T06:22:23.965Z,63.29
2019-04-21T06:25:26.112Z,62.99
2019-04-21T06:27:35.943Z,62.58
2019-04-21T06:30:03.405Z,62.50
2019-04-21T06:32:46.027Z,62.21
2019-04-21T06:35:16.667Z,61.80
2019-04-21T06:40:15.265Z,60.79
2019-04-21T06:42:34.278Z,60.62
2019-04-21T06:45:18.591Z,60.16
2019-04-21T06:50:00.153Z,58.96
2019-04-21T06:52:45.624Z,58.24
2019-04-21T06:57:34.829Z,56.93
2019-04-21T07:00:03.830Z,56.39
2019-04-21T07:02:49.349Z,55.78
2019-04-21T07:05:20.405Z,55.41
2019-04-21T07:07:35.610Z,54.98
2019-04-21T07:10:10.797Z,54.58
2019-04-21T07:12:35.297Z,53.87
2019-04-21T07:15:03.407Z,53.26
2019-04-21T07:17:33.618Z,53.01
2019-04-21T07:20:06.967Z,52.43
2019-04-21T07:22:37.318Z,52.11
2019-04-21T07:25:10.466Z,51.82
2019-04-21T07:27:43.046Z,51.51
2019-04-21T07:30:04.611Z,51.27
2019-04-21T07:32:37.617Z,50.90
2019-04-21T07:35:09.768Z,50.40
2019-04-21T07:37:36.621Z,50.33
2019-04-21T07:40:05.468Z,49.92
2019-04-21T07:42:32.870Z,49.80
2019-04-21T07:45:05.222Z,49.99
2019-04-21T07:47:54.945Z,49.80
2019-04-21T07:50:46.890Z,49.53
2019-04-21T07:53:36.501Z,49.34
2019-04-21T07:55:40.224Z,49.05
2019-04-21T07:58:29.823Z,48.74
2019-04-21T08:01:18.258Z,48.34
2019-04-21T08:03:35.216Z,48.03
2019-04-21T08:06:02.131Z,47.90
2019-04-21T08:08:26.388Z,47.49
2019-04-21T08:10:57.372Z,46.84
2019-04-21T08:13:42.962Z,46.22
2019-04-21T08:16:04.755Z,46.08
2019-04-21T08:18:33.495Z,45.60
2019-04-21T08:21:02.442Z,45.30
2019-04-21T08:23:31.568Z,45.09
2019-04-21T08:26:06.109Z,45.03
2019-04-21T08:31:10.219Z,44.26
2019-04-21T08:33:42.857Z,44.03
2019-04-21T08:36:19.314Z,43.32
2019-04-21T08:38:38.799Z,43.21
2019-04-21T08:41:18.488Z,43.18
2019-04-21T08:46:07.774Z,42.20
2019-04-21T08:48:40.515Z,42.09
2019-04-21T08:51:20.817Z,41.80
2019-04-21T08:53:41.565Z,41.47
2019-04-21T08:56:09.965Z,41.39
2019-04-21T08:58:42.566Z,41.19
2019-04-21T09:01:17.234Z,40.97
2019-04-21T09:03:56.287Z,40.59
2019-04-21T09:08:53.566Z,39.80
2019-04-21T09:11:22.517Z,39.41
2019-04-21T09:13:54.843Z,38.91
2019-04-21T09:16:20.587Z,38.47
2019-04-21T09:18:47.960Z,37.88
2019-04-21T09:21:25.654Z,37.93
2019-04-21T09:23:56.442Z,38.12
2019-04-21T09:26:26.263Z,37.01
2019-04-21T09:28:48.243Z,36.92
2019-04-21T09:31:08.491Z,36.73
2019-04-21T09:33:43.079Z,36.48
2019-04-21T09:36:12.446Z,36.50
2019-04-21T09:38:41.683Z,35.97
2019-04-21T09:41:15.512Z,35.86
2019-04-21T09:43:45.335Z,35.62
2019-04-21T09:46:11.672Z,35.40
2019-04-21T09:48:49.584Z,35.04
2019-04-21T09:51:11.044Z,34.25
2019-04-21T09:53:42.247Z,34.04
2019-04-21T09:56:14.796Z,34.08
2019-04-21T09:58:46.156Z,33.65
2019-04-21T10:01:19.520Z,33.34
2019-04-21T10:03:46.655Z,33.38
2019-04-21T10:06:11.260Z,32.99
2019-04-21T10:08:40.597Z,32.90
2019-04-21T10:11:09.868Z,32.51
2019-04-21T10:13:39.774Z,32.15
2019-04-21T10:16:19.637Z,32.28
2019-04-21T10:18:48.272Z,32.10
2019-04-21T10:21:17.409Z,31.97
2019-04-21T10:23:46.188Z,31.77
2019-04-21T10:26:14.699Z,31.16
2019-04-21T10:28:43.404Z,31.23
2019-04-21T10:31:11.942Z,31.03
2019-04-21T10:33:40.422Z,30.98
2019-04-21T10:36:08.980Z,30.45
2019-04-21T10:38:43.209Z,30.40
2019-04-21T10:41:07.773Z,30.66
2019-04-21T10:43:37.489Z,30.87
2019-04-21T10:46:06.631Z,30.74
2019-04-21T10:48:37.863Z,30.51
2019-04-21T10:51:07.420Z,30.20
2019-04-21T10:53:38.637Z,30.26
2019-04-21T10:56:15.407Z,30.28
2019-04-21T10:58:38.745Z,30.08
2019-04-21T11:01:10.455Z,30.02
2019-04-21T11:03:50.838Z,29.80
2019-04-21T11:06:21.090Z,29.67
2019-04-21T11:08:54.105Z,30.05
2019-04-21T11:11:21.668Z,30.33
2019-04-21T11:13:50.727Z,29.86
2019-04-21T11:16:19.246Z,29.97
2019-04-21T11:18:48.319Z,29.60
2019-04-21T11:21:17.151Z,29.33
2019-04-21T11:23:45.933Z,29.35
2019-04-21T11:26:15.897Z,29.36
2019-04-21T11:28:45.228Z,29.21
2019-04-21T11:31:15.448Z,29.21
2019-04-21T11:33:45.287Z,29.25
2019-04-21T11:36:15.299Z,29.04
2019-04-21T11:39:04.535Z,28.63
2019-04-21T11:41:16.121Z,28.99
2019-04-21T11:43:45.380Z,28.66
2019-04-21T11:46:13.962Z,29.00
2019-04-21T11:48:42.505Z,28.89
2019-04-21T11:51:11.253Z,28.64
2019-04-21T11:53:40.991Z,28.46
2019-04-21T11:56:09.770Z,28.47
2019-04-21T11:58:39.446Z,28.08
2019-04-21T12:01:09.501Z,27.91
2019-04-21T12:03:38.191Z,27.56
2019-04-21T12:06:06.886Z,27.44
2019-04-21T12:08:41.301Z,27.56
2019-04-21T12:11:05.562Z,27.56
2019-04-21T12:13:34.409Z,27.69
2019-04-21T12:16:03.221Z,27.59
2019-04-21T12:18:33.847Z,27.68
2019-04-21T12:21:03.290Z,27.59
2019-04-21T12:23:32.393Z,27.65
2019-04-21T12:26:01.295Z,27.77
2019-04-21T12:28:30.460Z,27.87
2019-04-21T12:31:00.113Z,27.60
2019-04-21T12:33:34.168Z,27.87
2019-04-21T12:36:03.964Z,27.89
2019-04-21T12:38:41.547Z,27.85
2019-04-21T12:41:02.795Z,27.73
2019-04-21T12:43:32.723Z,27.62
2019-04-21T12:46:02.221Z,27.01
2019-04-21T12:48:31.793Z,27.59
2019-04-21T12:51:01.715Z,27.84
2019-04-21T12:53:31.973Z,27.24
2019-04-21T12:56:02.126Z,27.12
2019-04-21T12:58:31.363Z,27.27
2019-04-21T13:01:00.989Z,26.97
2019-04-21T13:03:30.498Z,26.96
2019-04-21T13:06:01.261Z,26.73
2019-04-21T13:08:41.546Z,26.87
2019-04-21T13:11:02.301Z,26.78
2019-04-21T13:13:35.713Z,26.74
2019-04-21T13:16:05.355Z,26.78
2019-04-21T13:18:35.067Z,26.92
2019-04-21T13:21:07.151Z,26.63
2019-04-21T13:23:37.001Z,26.56
2019-04-21T13:26:06.504Z,26.60
2019-04-21T13:28:37.523Z,26.36
2019-04-21T13:31:06.546Z,26.32
2019-04-21T13:33:35.245Z,26.34
2019-04-21T13:36:04.973Z,26.50
2019-04-21T13:38:42.506Z,26.48
2019-04-21T13:41:23.061Z,26.54
2019-04-21T13:43:39.437Z,26.35
2019-04-21T13:46:08.144Z,26.52
2019-04-21T13:48:36.922Z,26.57
2019-04-21T13:51:07.054Z,26.56
2019-04-21T13:53:36.323Z,26.51
2019-04-21T13:56:06.798Z,26.49
2019-04-21T13:58:35.446Z,26.47
2019-04-21T14:01:05.501Z,26.67
2019-04-21T14:03:35.458Z,26.65
2019-04-21T14:06:04.596Z,26.68
2019-04-21T14:08:33.626Z,26.74
2019-04-21T14:11:02.274Z,26.51
2019-04-21T14:13:32.178Z,26.37
2019-04-21T14:16:02.037Z,26.39
2019-04-21T14:18:31.015Z,26.31
2019-04-21T14:21:00.889Z,26.01
2019-04-21T14:23:37.699Z,26.01
2019-04-21T14:25:59.793Z,26.02
2019-04-21T14:28:28.341Z,26.12
2019-04-21T14:30:58.686Z,26.23
2019-04-21T14:33:27.931Z,26.35
2019-04-21T14:35:56.865Z,26.32
2019-04-21T14:38:26.703Z,26.19
2019-04-21T14:40:56.552Z,26.15
2019-04-21T14:43:25.947Z,26.13
2019-04-21T14:46:06.384Z,26.12
2019-04-21T14:48:53.076Z,25.88
2019-04-21T14:51:29.385Z,25.67
2019-04-21T14:54:06.149Z,25.57
2019-04-21T14:56:35.566Z,25.73
2019-04-21T14:59:05.864Z,25.52
2019-04-21T15:01:35.899Z,25.51
2019-04-21T15:04:05.894Z,25.39
2019-04-21T15:06:35.215Z,25.61
2019-04-21T15:09:07.054Z,25.53
2019-04-21T15:11:39.896Z,25.48
2019-04-21T15:14:08.700Z,25.52
2019-04-21T15:16:38.565Z,25.57
2019-04-21T15:19:08.630Z,25.57
2019-04-21T15:21:37.641Z,25.56
2019-04-21T15:24:06.518Z,25.95
2019-04-21T15:26:35.926Z,25.48
2019-04-21T15:29:06.800Z,25.14
2019-04-21T15:31:38.292Z,25.36
2019-04-21T15:34:05.829Z,25.55
2019-04-21T15:36:35.178Z,25.61
2019-04-21T15:39:05.806Z,25.88
2019-04-21T15:41:34.494Z,25.91
2019-04-21T15:44:04.751Z,25.92
2019-04-21T15:46:35.190Z,26.03
2019-04-21T15:49:05.037Z,26.07
2019-04-21T15:51:33.834Z,26.06
2019-04-21T15:54:04.795Z,26.29
2019-04-21T15:56:38.545Z,26.16
2019-04-21T15:59:24.489Z,26.17
2019-04-21T16:01:56.699Z,26.04
2019-04-21T16:04:28.579Z,26.08
2019-04-21T16:06:57.816Z,26.33
2019-04-21T16:09:30.661Z,26.54
2019-04-21T16:11:59.969Z,26.41
2019-04-21T16:14:29.069Z,26.39
2019-04-21T16:16:59.092Z,26.51
2019-04-21T16:19:29.351Z,26.56
2019-04-21T16:21:59.035Z,26.88
2019-04-21T16:24:30.692Z,26.89
2019-04-21T16:27:01.703Z,26.90
2019-04-21T16:29:31.290Z,26.94
2019-04-21T16:32:01.576Z,26.93
2019-04-21T16:34:40.153Z,27.07
2019-04-21T16:37:01.494Z,27.20
2019-04-21T16:39:31.752Z,27.53
2019-04-21T16:42:00.482Z,27.62
2019-04-21T16:44:29.411Z,27.79
2019-04-21T16:46:59.336Z,27.83
2019-04-21T16:49:29.580Z,27.60
2019-04-21T16:52:12.230Z,27.41
2019-04-21T16:54:44.014Z,27.50
2019-04-21T16:57:17.625Z,27.59
2019-04-21T16:59:50.664Z,27.41
2019-04-21T17:02:20.631Z,27.34
2019-04-21T17:04:49.751Z,27.25
2019-04-21T17:07:19.897Z,27.15
2019-04-21T17:09:48.779Z,27.06
2019-04-21T17:12:18.782Z,27.14
2019-04-21T17:15:03.109Z,27.26
2019-04-21T17:17:43.103Z,27.31
2019-04-21T17:19:51.193Z,27.51
2019-04-21T17:22:21.909Z,27.87
2019-04-21T17:24:50.587Z,28.14
2019-04-21T17:27:20.711Z,28.42
2019-04-21T17:29:50.657Z,28.86
2019-04-21T17:32:20.447Z,29.32
2019-04-21T17:34:50.118Z,29.72
2019-04-21T17:37:21.543Z,30.05
2019-04-21T17:39:49.302Z,30.44
2019-04-21T17:42:33.017Z,30.77
2019-04-21T17:44:52.985Z,31.04
2019-04-21T17:47:32.776Z,31.37
2019-04-21T17:50:13.691Z,31.67
2019-04-21T17:52:55.551Z,32.07
2019-04-21T17:55:27.704Z,32.34
2019-04-21T17:58:09.390Z,32.62
2019-04-21T18:01:07.822Z,32.67
2019-04-21T18:03:25.244Z,32.99
2019-04-21T18:05:48.746Z,33.02
2019-04-21T18:08:18.469Z,33.11
2019-04-21T18:10:45.304Z,33.13
2019-04-21T18:13:09.908Z,33.30
2019-04-21T18:15:47.000Z,33.48
2019-04-21T18:18:08.442Z,33.87
2019-04-21T18:20:41.981Z,34.06
2019-04-21T18:23:34.950Z,34.26
2019-04-21T18:26:01.419Z,34.39
2019-04-21T18:28:22.812Z,34.51
2019-04-21T18:30:56.316Z,34.52
2019-04-21T18:33:32.093Z,34.63
2019-04-21T18:35:59.969Z,34.69
2019-04-21T18:39:14.381Z,34.69
2019-04-21T18:41:29.690Z,34.87
2019-04-21T18:44:30.296Z,35.02
2019-04-21T18:46:55.612Z,35.46
2019-04-21T18:49:19.313Z,35.50
2019-04-21T18:52:02.812Z,35.81
2019-04-21T18:54:45.844Z,36.05
2019-04-21T18:57:10.804Z,36.43
2019-04-21T18:59:36.095Z,36.62
2019-04-21T19:02:06.876Z,36.71
2019-04-21T19:04:36.858Z,36.95
2019-04-21T19:07:18.329Z,37.12
2019-04-21T19:10:10.895Z,37.29
2019-04-21T19:12:33.976Z,37.44
2019-04-21T19:14:50.991Z,37.61
2019-04-21T19:20:10.437Z,37.81
2019-04-21T19:22:27.742Z,37.94
2019-04-21T19:24:59.777Z,38.04
2019-04-21T19:27:28.116Z,38.16
2019-04-21T19:30:05.671Z,38.25
2019-04-21T19:32:25.620Z,38.43
2019-04-21T19:34:41.438Z,38.66
2019-04-21T19:37:14.438Z,38.77
2019-04-21T19:39:53.908Z,38.92
2019-04-21T19:42:28.436Z,39.12
2019-04-21T19:45:00.044Z,39.37
2019-04-21T19:47:35.444Z,39.76
2019-04-21T19:50:09.558Z,40.02
2019-04-21T19:52:26.611Z,40.18
2019-04-21T19:54:50.402Z,40.38
2019-04-21T19:57:18.672Z,40.63
2019-04-21T19:59:50.070Z,40.75
2019-04-21T20:02:18.643Z,40.84
2019-04-21T20:05:01.028Z,40.93
2019-04-21T20:07:33.105Z,41.13
2019-04-21T20:10:14.436Z,41.33
2019-04-21T20:13:02.862Z,41.56
2019-04-21T20:15:19.585Z,41.76
2019-04-21T20:17:44.975Z,41.98
2019-04-21T20:19:56.214Z,42.22
2019-04-21T20:22:34.888Z,42.47
2019-04-21T20:25:02.303Z,42.64
2019-04-21T20:27:37.504Z,42.80
2019-04-21T20:30:18.603Z,42.90
2019-04-21T20:32:46.408Z,42.97
2019-04-21T20:35:18.136Z,43.11
2019-04-21T20:37:42.302Z,43.37
2019-04-21T20:40:02.287Z,44.00
2019-04-21T20:42:38.939Z,44.43
2019-04-21T20:45:29.629Z,45.06
2019-04-21T20:47:35.494Z,45.25
2019-04-21T20:50:12.307Z,45.01
2019-04-21T20:52:52.453Z,44.99
2019-04-21T20:55:11.863Z,45.08
2019-04-21T20:57:43.314Z,45.12
2019-04-21T21:00:13.416Z,45.10
2019-04-21T21:02:46.950Z,45.14
2019-04-21T21:05:10.488Z,45.32
2019-04-21T21:07:50.265Z,45.65
2019-04-21T21:10:16.869Z,45.77
2019-04-21T21:15:10.130Z,45.74
2019-04-21T21:18:00.558Z,45.82
2019-04-21T21:20:25.757Z,46.21
2019-04-21T21:22:50.870Z,46.75
2019-04-21T21:25:33.777Z,47.02
2019-04-21T21:27:51.933Z,47.00
2019-04-21T21:30:28.528Z,47.06
2019-04-21T21:33:11.461Z,47.25
2019-04-21T21:35:41.143Z,47.48
2019-04-21T21:38:14.848Z,47.77
2019-04-21T21:40:42.325Z,48.03
2019-04-21T21:43:01.537Z,48.29
2019-04-21T21:45:40.102Z,48.73
2019-04-21T21:48:18.790Z,49.18
2019-04-21T21:50:46.990Z,49.51
2019-04-21T21:53:10.464Z,49.95
2019-04-21T21:55:35.714Z,50.24
2019-04-21T21:58:04.372Z,50.50
2019-04-21T22:00:37.963Z,50.52
2019-04-21T22:03:14.872Z,50.59
2019-04-21T22:05:45.609Z,50.70
2019-04-21T22:08:06.727Z,50.99
2019-04-21T22:10:36.987Z,50.99
2019-04-21T22:13:12.105Z,51.23
2019-04-21T22:15:39.618Z,51.60
2019-04-21T22:18:31.553Z,51.74
2019-04-21T22:20:57.493Z,51.87
2019-04-21T22:23:30.482Z,52.12
2019-04-21T22:25:46.143Z,52.31
2019-04-21T22:28:15.885Z,52.44
2019-04-21T22:30:49.181Z,52.58
2019-04-21T22:33:18.094Z,52.71
2019-04-21T22:35:53.270Z,53.08
2019-04-21T22:38:31.875Z,53.26
2019-04-21T22:40:59.057Z,53.58
2019-04-21T22:43:26.607Z,53.97
2019-04-21T22:45:47.822Z,54.22
2019-04-21T22:48:22.688Z,54.48
2019-04-21T22:50:48.579Z,54.56
2019-04-21T22:53:17.931Z,54.69
2019-04-21T22:55:49.619Z,54.94
2019-04-21T22:58:25.946Z,55.18
2019-04-21T23:00:54.787Z,55.50
2019-04-21T23:03:24.633Z,55.74
2019-04-21T23:05:53.558Z,55.89
2019-04-21T23:08:30.411Z,56.09
2019-04-21T23:11:00.927Z,56.49
2019-04-21T23:13:25.951Z,56.60
2019-04-21T23:15:57.709Z,56.73
2019-04-21T23:18:40.111Z,56.88
2019-04-21T23:21:10.446Z,57.02
2019-04-21T23:23:44.257Z,57.07
2019-04-21T23:26:14.465Z,57.17
2019-04-21T23:28:47.894Z,57.35
2019-04-21T23:31:21.427Z,57.51
2019-04-21T23:33:27.551Z,57.78
2019-04-21T23:36:02.663Z,57.96
2019-04-21T23:38:33.291Z,58.14
2019-04-21T23:41:00.528Z,58.20
2019-04-21T23:43:30.008Z,58.28
2019-04-21T23:46:00.792Z,58.55
2019-04-21T23:48:39.128Z,58.73
2019-04-21T23:51:13.508Z,58.85
2019-04-21T23:53:29.148Z,58.82
2019-04-21T23:55:59.159Z,59.25
2019-04-21T23:58:31.267Z,59.17
